Flight Track Log - Related Links

Times and Time Zones

All times are in EDT time to prevent confusion due to time zone crossing. See the JTA613 flight status page for this flight to view local times or setup timezone preferences in your user account.

Time Position Orientation Groundspeed Altitude Reporting Facility
EDT Latitude Longitude Course Direction KTS MPH feet Rate Location/Type
Sun 01:42:00 AM 26.0449 127.3540 240° Southwest  Level Estimated
Sun 01:43:00 AM 25.9945 127.2569 240° Southwest  Level Estimated
Sun 01:44:00 AM 25.9440 127.1598 240° Southwest  Level Estimated
Sun 01:45:00 AM 25.8934 127.0629 240° Southwest  Level Estimated
Sun 01:46:00 AM 25.8428 126.9660 240° Southwest  Level Estimated
Sun 01:47:00 AM 25.7921 126.8692 240° Southwest  Level Estimated
Sun 01:48:00 AM 25.7413 126.7725 240° Southwest  Level Estimated
Sun 01:49:00 AM 25.6905 126.6759 240° Southwest  Level Estimated
Sun 01:50:00 AM 25.6396 126.5794 240° Southwest  Level Estimated
Sun 01:51:00 AM 25.5887 126.4829 240° Southwest  Level Estimated
Sun 01:52:00 AM 25.5377 126.3865 240° Southwest  Level Estimated
Sun 01:53:00 AM 25.4866 126.2902 240° Southwest  Level Estimated
Sun 01:54:00 AM 25.4354 126.1940 240° Southwest  Level Estimated
Sun 01:55:00 AM 25.3843 126.0979 239° Southwest  Level Estimated
Sun 01:56:00 AM 25.3330 126.0018 239° Southwest  Level Estimated
Sun 01:57:00 AM 25.2817 125.9059 239° Southwest  Level Estimated
Sun 01:58:00 AM 25.2303 125.8100 239° Southwest  Level Estimated
Sun 01:59:00 AM 25.1788 125.7142 239° Southwest  Level Estimated
Sun 02:00:00 AM 25.1273 125.6184 239° Southwest  Level Estimated
Sun 02:01:00 AM 25.0758 125.5228 239° Southwest  Level Estimated
Sun 02:02:00 AM 25.0241 125.4273 239° Southwest  Level Estimated
Sun 02:03:00 AM 24.9724 125.3318 239° Southwest  Level Estimated
Sun 02:04:00 AM 24.9207 125.2364 239° Southwest  Level Estimated
Sun 02:05:00 AM 24.8689 125.1411 239° Southwest  Level Estimated
Sun 02:06:00 AM 24.8170 125.0458 239° Southwest  Level Estimated
Sun 02:07:00 AM 24.7650 124.9507 239° Southwest  Level Estimated
Sun 02:08:00 AM 24.7131 124.8556 239° Southwest  Level Estimated
Sun 02:09:00 AM 24.6610 124.7606 239° Southwest  Level Estimated
Sun 02:10:00 AM 24.6089 124.6656 239° Southwest  Level Estimated
Sun 02:11:00 AM 24.5567 124.5708 239° Southwest  Level Estimated
Sun 02:12:00 AM 24.5045 124.4760 239° Southwest  Level Estimated
Sun 02:13:00 AM 24.4522 124.3813 239° Southwest  Level Estimated
Sun 02:14:00 AM 24.3998 124.2867 239° Southwest  Level Estimated
Sun 02:15:00 AM 24.3474 124.1922 239° Southwest  Level Estimated
Sun 02:16:00 AM 24.3445 124.1870 239° Southwest  Level Estimated
Sun 02:17:00 AM 24.3445 124.1870 29° Northeast  Level Estimated
Sun 02:18:00 AM 24.3445 124.1870 29° Northeast  Level Estimated
Sun 02:19:00 AM 24.3445 124.1870 29° Northeast  Level Estimated
Sun 02:20:00 AM 24.3445 124.1870 29° Northeast  Level Estimated

Login

Don't have an account? Register now (free) for customized features, flight alerts, and more!